Datum - Zeit
Döttingen
TemperaturTaupunktFeuchteSolar Wind aus
Richtung
Windböenaus
Richtung
Luftdruck
(QFF)
RegenRegen
Stärke
10.08.2020 - 00.00Uhr20.4 °C16.8 °C80 %0.0 W/m²3.4 km/hOst-SO8.3 km/hOst-SO1013.9 hPa0.0 mm0.0 mm/h
10.08.2020 - 00.05Uhr20.4 °C16.8 °C80 %0.0 W/m²3.1 km/hOst-SO8.3 km/hOst-SO1013.8 hPa0.0 mm0.0 mm/h
10.08.2020 - 00.10Uhr20.2 °C16.6 °C80 %0.0 W/m²2.2 km/hOst-SO4.0 km/hOst-SO1013.9 hPa0.0 mm0.0 mm/h
10.08.2020 - 00.15Uhr20.3 °C16.7 °C80 %0.0 W/m²1.4 km/hOst-SO4.0 km/hOst-SO1013.9 hPa0.0 mm0.0 mm/h
10.08.2020 - 00.20Uhr20.2 °C16.6 °C80 %0.0 W/m²1.9 km/hOst-SO4.0 km/hOst-SO1013.9 hPa0.0 mm0.0 mm/h
10.08.2020 - 00.25Uhr20.0 °C16.5 °C81 %0.0 W/m²3.1 km/hOst-SO8.3 km/hOst-SO1013.9 hPa0.0 mm0.0 mm/h
10.08.2020 - 00.30Uhr19.9 °C16.5 °C81 %0.0 W/m²3.0 km/hOst-SO8.3 km/hOst-SO1013.9 hPa0.0 mm0.0 mm/h
10.08.2020 - 00.35Uhr20.1 °C16.6 °C81 %0.0 W/m²2.8 km/hOst-SO8.3 km/hOst-SO1014.0 hPa0.0 mm0.0 mm/h
10.08.2020 - 00.40Uhr20.1 °C16.5 °C80 %0.0 W/m²2.3 km/hOst-SO4.0 km/hOst-SO1014.0 hPa0.0 mm0.0 mm/h
10.08.2020 - 00.45Uhr20.1 °C16.6 °C81 %0.0 W/m²2.0 km/hOst-SO4.0 km/hOst-SO1013.9 hPa0.0 mm0.0 mm/h
10.08.2020 - 00.50Uhr20.0 °C16.6 °C81 %0.0 W/m²1.8 km/hOst-SO4.0 km/hOst-SO1013.9 hPa0.0 mm0.0 mm/h
10.08.2020 - 00.55Uhr19.9 °C16.5 °C81 %0.0 W/m²2.4 km/hOst-SO4.0 km/hOst-SO1013.9 hPa0.0 mm0.0 mm/h
10.08.2020 - 01.00Uhr19.8 °C16.4 °C81 %0.0 W/m²3.0 km/hOst-SO8.3 km/hOst-SO1013.8 hPa0.0 mm0.0 mm/h
10.08.2020 - 01.05Uhr19.8 °C16.4 °C81 %0.0 W/m²1.1 km/hOst-SO4.0 km/hOst-SO1013.9 hPa0.0 mm0.0 mm/h
10.08.2020 - 01.10Uhr19.9 °C16.4 °C81 %0.0 W/m²0.0 km/hOst-SO0.0 km/hNorden1013.9 hPa0.0 mm0.0 mm/h
10.08.2020 - 01.15Uhr19.6 °C16.3 °C82 %0.0 W/m²0.5 km/hOst-SO1.8 km/hOst-SO1013.9 hPa0.0 mm0.0 mm/h
10.08.2020 - 01.20Uhr19.2 °C16.1 °C82 %0.0 W/m²0.0 km/hOst-SO0.0 km/hNorden1014.0 hPa0.0 mm0.0 mm/h
10.08.2020 - 01.25Uhr18.9 °C15.9 °C83 %0.0 W/m²4.7 km/hOst-SO8.3 km/hOst-SO1014.0 hPa0.0 mm0.0 mm/h
10.08.2020 - 01.30Uhr18.6 °C15.8 °C83 %0.0 W/m²4.2 km/hOst-SO8.3 km/hOst-SO1013.8 hPa0.0 mm0.0 mm/h
10.08.2020 - 01.35Uhr18.5 °C15.6 °C83 %0.0 W/m²0.9 km/hOst-SO4.0 km/hOst-SO1013.9 hPa0.0 mm0.0 mm/h
10.08.2020 - 01.40Uhr18.7 °C15.8 °C83 %0.0 W/m²3.4 km/hOst-SO8.3 km/hOst-SO1013.8 hPa0.0 mm0.0 mm/h
10.08.2020 - 01.45Uhr18.8 °C15.9 °C83 %0.0 W/m²4.3 km/hOst-SO8.3 km/hOst-SO1013.7 hPa0.0 mm0.0 mm/h
10.08.2020 - 01.50Uhr18.8 °C15.9 °C83 %0.0 W/m²2.3 km/hOst-SO4.0 km/hOst-SO1013.6 hPa0.0 mm0.0 mm/h
10.08.2020 - 01.55Uhr18.7 °C15.8 °C83 %0.0 W/m²0.0 km/hOst-SO0.0 km/hNorden1013.7 hPa0.0 mm0.0 mm/h
10.08.2020 - 02.00Uhr18.5 °C15.6 °C83 %0.0 W/m²1.1 km/hOst-SO4.0 km/hOst-SO1013.7 hPa0.0 mm0.0 mm/h
10.08.2020 - 02.05Uhr18.3 °C15.4 °C83 %0.0 W/m²3.5 km/hOst-SO8.3 km/hOst-SO1013.7 hPa0.0 mm0.0 mm/h
10.08.2020 - 02.10Uhr18.3 °C15.5 °C84 %0.0 W/m²2.6 km/hOst-SO4.0 km/hOst-SO1013.6 hPa0.0 mm0.0 mm/h
10.08.2020 - 02.15Uhr18.6 °C15.7 °C83 %0.0 W/m²1.8 km/hOst-SO4.0 km/hOst-SO1013.6 hPa0.0 mm0.0 mm/h
10.08.2020 - 02.20Uhr18.7 °C15.8 °C83 %0.0 W/m²2.1 km/hOst-SO4.0 km/hOst-SO1013.5 hPa0.0 mm0.0 mm/h
10.08.2020 - 02.25Uhr18.6 °C15.7 °C83 %0.0 W/m²0.0 km/hOst-SO0.0 km/hNorden1013.5 hPa0.0 mm0.0 mm/h
10.08.2020 - 02.30Uhr18.3 °C15.4 °C83 %0.0 W/m²0.0 km/hOst-SO0.0 km/hNorden1013.5 hPa0.0 mm0.0 mm/h
10.08.2020 - 02.35Uhr18.4 °C15.5 °C83 %0.0 W/m²0.0 km/hOst-SO0.0 km/hNorden1013.5 hPa0.0 mm0.0 mm/h
10.08.2020 - 02.40Uhr18.3 °C15.4 °C83 %0.0 W/m²0.0 km/hOst-SO0.0 km/hNorden1013.5 hPa0.0 mm0.0 mm/h
10.08.2020 - 02.45Uhr18.3 °C15.4 °C83 %0.0 W/m²0.0 km/hOst-SO0.0 km/hNorden1013.5 hPa0.0 mm0.0 mm/h
10.08.2020 - 02.50Uhr17.9 °C15.2 °C84 %0.0 W/m²0.4 km/hOst-SO1.8 km/hOst-SO1013.5 hPa0.0 mm0.0 mm/h
10.08.2020 - 02.55Uhr17.9 °C15.2 °C84 %0.0 W/m²2.4 km/hOst-SO4.0 km/hOst-SO1013.5 hPa0.0 mm0.0 mm/h
10.08.2020 - 03.00Uhr18.1 °C15.4 °C84 %0.0 W/m²0.7 km/hOst-SO1.8 km/hOst-SO1013.6 hPa0.0 mm0.0 mm/h
10.08.2020 - 03.05Uhr17.8 °C15.1 °C84 %0.0 W/m²0.0 km/hOst-SO0.0 km/hNorden1013.6 hPa0.0 mm0.0 mm/h
10.08.2020 - 03.10Uhr17.9 °C15.2 °C84 %0.0 W/m²1.5 km/hOst-SO4.0 km/hOst-SO1013.6 hPa0.0 mm0.0 mm/h
10.08.2020 - 03.15Uhr17.7 °C15.0 °C84 %0.0 W/m²3.0 km/hOst-SO8.3 km/hOst-SO1013.6 hPa0.0 mm0.0 mm/h
10.08.2020 - 03.20Uhr17.4 °C14.7 °C84 %0.0 W/m²3.6 km/hOst-SO8.3 km/hOst-SO1013.6 hPa0.0 mm0.0 mm/h
10.08.2020 - 03.25Uhr17.7 °C15.0 °C84 %0.0 W/m²4.5 km/hOst-SO8.3 km/hOst-SO1013.6 hPa0.0 mm0.0 mm/h
10.08.2020 - 03.30Uhr17.9 °C15.2 °C84 %0.0 W/m²3.3 km/hOst-SO8.3 km/hOst-SO1013.6 hPa0.0 mm0.0 mm/h
10.08.2020 - 03.35Uhr17.9 °C15.2 °C84 %0.0 W/m²0.9 km/hOst-SO4.0 km/hOst-SO1013.6 hPa0.0 mm0.0 mm/h
10.08.2020 - 03.40Uhr17.8 °C15.1 °C84 %0.0 W/m²0.0 km/hOst-SO0.0 km/hNorden1013.6 hPa0.0 mm0.0 mm/h
10.08.2020 - 03.45Uhr17.7 °C15.0 °C84 %0.0 W/m²0.7 km/hOst-SO4.0 km/hOst-SO1013.5 hPa0.0 mm0.0 mm/h
10.08.2020 - 03.50Uhr17.8 °C15.1 °C84 %0.0 W/m²0.7 km/hOst-SO1.8 km/hOst-SO1013.5 hPa0.0 mm0.0 mm/h
10.08.2020 - 03.55Uhr17.8 °C15.1 °C84 %0.0 W/m²0.2 km/hOst-SO1.8 km/hOst-SO1013.5 hPa0.0 mm0.0 mm/h
10.08.2020 - 04.00Uhr17.4 °C14.8 °C84 %0.0 W/m²2.7 km/hOst-SO8.3 km/hOst-SO1013.5 hPa0.0 mm0.0 mm/h
10.08.2020 - 04.05Uhr17.2 °C14.5 °C84 %0.0 W/m²0.6 km/hOst-SO1.8 km/hOst-SO1013.5 hPa0.0 mm0.0 mm/h
10.08.2020 - 04.10Uhr17.2 °C14.5 °C84 %0.0 W/m²0.0 km/hOst-SO0.0 km/hNorden1013.5 hPa0.0 mm0.0 mm/h
10.08.2020 - 04.15Uhr17.1 °C14.4 °C84 %0.0 W/m²1.5 km/hOst-SO4.0 km/hOst-SO1013.5 hPa0.0 mm0.0 mm/h
10.08.2020 - 04.20Uhr17.3 °C14.7 °C84 %0.0 W/m²0.9 km/hOst-SO4.0 km/hOst-SO1013.4 hPa0.0 mm0.0 mm/h